Time;durP1;ratioP1;P1;durP2;ratioP2;P2;SDS_P1;SDS_P2;PMS_P1;PMS_P2;Temp;Humidity;BMP_temperature;BMP_pressure;BME280_temperature;BME280_humidity;BME280_pressure;Samples;Min_cycle;Max_cycle;Signal;HPM_P1;HPM_P2
2023/09/20 00:00:57;;;;;;;5.60;1.42;;;16.60;99.90;;;;;;4988006;28;20054;-34
2023/09/20 00:03:25;;;;;;;7.50;1.65;;;16.70;99.90;;;;;;4988629;28;20523;-34
2023/09/20 00:05:51;;;;;;;6.15;1.75;;;16.70;99.90;;;;;;4986228;28;20116;-34
2023/09/20 00:08:18;;;;;;;6.78;1.55;;;16.70;99.90;;;;;;4989806;28;20050;-34
2023/09/20 00:10:45;;;;;;;7.35;1.55;;;16.80;99.90;;;;;;4985738;28;20050;-34
2023/09/20 00:13:11;;;;;;;7.03;1.67;;;16.80;99.90;;;;;;4990483;28;20555;-34
2023/09/20 00:15:40;;;;;;;5.22;1.45;;;16.80;99.90;;;;;;4988662;28;20055;-34
2023/09/20 00:18:06;;;;;;;6.50;2.10;;;16.80;99.90;;;;;;4986011;28;20062;-34
2023/09/20 00:20:33;;;;;;;5.88;1.60;;;16.80;99.90;;;;;;4990402;28;20057;-34
2023/09/20 00:23:00;;;;;;;6.03;1.48;;;16.80;99.90;;;;;;4989067;28;20042;-34
2023/09/20 00:25:27;;;;;;;3.47;1.13;;;16.80;99.90;;;;;;4988804;28;20046;-34
2023/09/20 00:27:53;;;;;;;7.88;1.70;;;16.80;99.90;;;;;;4992909;28;20496;-34
2023/09/20 00:30:19;;;;;;;5.82;1.55;;;16.80;99.90;;;;;;4990702;28;20061;-34
2023/09/20 00:32:46;;;;;;;6.07;1.60;;;16.80;99.90;;;;;;4988407;28;20527;-34
2023/09/20 00:35:17;;;;;;;4.00;1.08;;;16.80;99.90;;;;;;4970908;28;20516;-34
2023/09/20 00:37:46;;;;;;;6.55;1.30;;;16.90;99.90;;;;;;4986528;28;20085;-34
2023/09/20 00:40:18;;;;;;;8.15;1.50;;;16.90;99.90;;;;;;4985786;28;20058;-35
2023/09/20 00:42:45;;;;;;;9.60;1.80;;;16.90;99.90;;;;;;4982714;28;20046;-34
2023/09/20 00:45:15;;;;;;;4.72;1.30;;;16.90;99.90;;;;;;4987076;28;20058;-34
2023/09/20 00:47:44;;;;;;;6.30;2.42;;;16.90;99.90;;;;;;4982444;28;20140;-34
2023/09/20 00:50:11;;;;;;;5.43;1.48;;;16.90;99.90;;;;;;4965454;28;20059;-34
2023/09/20 00:52:42;;;;;;;6.35;1.40;;;16.90;99.90;;;;;;4969789;28;20054;-34
2023/09/20 00:55:15;;;;;;;6.60;1.23;;;17.00;99.90;;;;;;4984622;28;20412;-34
2023/09/20 00:57:45;;;;;;;4.07;1.40;;;17.00;99.90;;;;;;4985267;28;20762;-34
2023/09/20 01:00:27;;;;;;;4.22;1.30;;;17.00;99.90;;;;;;4981000;28;20053;-34
2023/09/20 01:02:54;;;;;;;5.22;1.48;;;16.90;99.90;;;;;;4983339;28;20058;-34
2023/09/20 01:05:21;;;;;;;6.95;1.83;;;17.00;99.90;;;;;;4982147;28;20054;-34
2023/09/20 01:07:57;;;;;;;6.32;1.40;;;17.00;99.90;;;;;;4983610;28;20050;-34
2023/09/20 01:10:27;;;;;;;8.63;1.60;;;17.00;99.90;;;;;;4984115;28;20117;-34
2023/09/20 01:12:54;;;;;;;6.28;1.65;;;17.00;99.90;;;;;;4987357;28;20085;-34
2023/09/20 01:15:24;;;;;;;4.93;1.55;;;17.00;99.90;;;;;;4986364;28;20142;-34
2023/09/20 01:17:54;;;;;;;5.80;1.38;;;17.00;99.90;;;;;;4984844;28;20405;-34
2023/09/20 01:20:20;;;;;;;6.00;1.30;;;17.00;99.90;;;;;;4982903;28;20077;-34
2023/09/20 01:22:47;;;;;;;3.33;1.10;;;17.00;99.90;;;;;;4967719;28;20089;-34
2023/09/20 01:25:19;;;;;;;5.60;1.30;;;17.00;99.90;;;;;;4981933;28;20611;-34
2023/09/20 01:27:45;;;;;;;4.20;1.30;;;17.00;99.90;;;;;;4965917;28;20058;-34
2023/09/20 01:30:11;;;;;;;6.28;1.33;;;17.00;99.90;;;;;;4981316;28;20061;-34
2023/09/20 01:32:37;;;;;;;5.72;1.48;;;17.00;99.90;;;;;;4983752;28;20416;-34
2023/09/20 01:35:04;;;;;;;3.75;1.08;;;17.00;99.90;;;;;;4982717;28;20043;-34
2023/09/20 01:37:31;;;;;;;5.50;1.23;;;16.90;99.90;;;;;;4982488;28;20149;-34
2023/09/20 01:39:57;;;;;;;5.28;1.10;;;16.90;99.90;;;;;;4981646;28;20542;-34
2023/09/20 01:42:23;;;;;;;4.63;1.10;;;16.90;99.90;;;;;;4985158;28;20060;-34
2023/09/20 01:44:49;;;;;;;6.18;1.67;;;16.90;99.90;;;;;;4984396;28;20054;-34
2023/09/20 01:47:15;;;;;;;2.70;1.05;;;16.90;99.90;;;;;;4983848;28;21151;-34
2023/09/20 01:49:42;;;;;;;4.70;1.13;;;17.00;99.90;;;;;;4980125;28;20054;-34
2023/09/20 01:52:09;;;;;;;5.35;1.15;;;17.00;99.90;;;;;;4984806;28;20042;-34
2023/09/20 01:54:35;;;;;;;5.05;0.85;;;17.00;99.90;;;;;;4983114;28;20483;-34
2023/09/20 01:57:00;;;;;;;5.03;1.23;;;17.00;99.90;;;;;;4984514;28;20058;-34
2023/09/20 01:59:26;;;;;;;5.82;1.33;;;17.00;99.90;;;;;;4981635;28;20457;-34
2023/09/20 02:01:52;;;;;;;4.65;1.17;;;17.00;99.90;;;;;;4984367;28;20423;-34
2023/09/20 02:04:20;;;;;;;5.65;1.38;;;17.00;99.90;;;;;;4981981;28;20066;-34
2023/09/20 02:06:46;;;;;;;4.57;1.48;;;17.00;99.90;;;;;;4983110;28;20073;-34
2023/09/20 02:09:13;;;;;;;8.05;1.90;;;16.90;99.90;;;;;;4982521;28;20468;-34
2023/09/20 02:11:40;;;;;;;6.03;1.30;;;16.90;99.90;;;;;;4983473;28;20475;-35
2023/09/20 02:14:05;;;;;;;6.30;1.45;;;16.90;99.90;;;;;;4982173;28;20489;-34
2023/09/20 02:16:32;;;;;;;4.13;1.20;;;16.90;99.90;;;;;;4984926;28;20050;-34
2023/09/20 02:18:58;;;;;;;3.60;1.38;;;16.90;99.90;;;;;;4984786;28;20049;-34
2023/09/20 02:21:24;;;;;;;4.45;1.48;;;16.90;99.90;;;;;;4982312;28;20047;-34
2023/09/20 02:23:56;;;;;;;6.07;1.40;;;17.00;99.90;;;;;;4986313;28;20053;-34
2023/09/20 02:26:22;;;;;;;4.78;1.63;;;17.00;99.90;;;;;;4984845;28;20141;-34
2023/09/20 02:28:48;;;;;;;4.88;1.00;;;17.00;99.90;;;;;;4986834;28;20543;-34
2023/09/20 02:31:15;;;;;;;5.65;1.05;;;17.00;99.90;;;;;;4985055;28;20058;-34
2023/09/20 02:33:40;;;;;;;7.70;1.75;;;16.90;99.90;;;;;;4984463;28;20047;-34
2023/09/20 02:36:06;;;;;;;4.10;1.30;;;16.90;99.90;;;;;;4982844;28;20137;-34
2023/09/20 02:38:32;;;;;;;5.57;1.35;;;16.90;99.90;;;;;;4981444;28;20082;-34
2023/09/20 02:40:58;;;;;;;5.97;1.20;;;16.80;99.90;;;;;;4983225;28;20046;-34
2023/09/20 02:43:24;;;;;;;9.95;2.03;;;16.80;99.90;;;;;;4984354;28;20058;-34
2023/09/20 02:45:49;;;;;;;5.15;1.35;;;16.90;99.90;;;;;;4987385;28;20493;-34
2023/09/20 02:48:15;;;;;;;3.72;1.08;;;16.90;99.90;;;;;;4985888;28;20065;-34
2023/09/20 02:50:41;;;;;;;8.20;1.80;;;16.90;99.90;;;;;;4979252;28;20525;-37
2023/09/20 02:53:07;;;;;;;5.40;1.60;;;16.90;99.90;;;;;;4981827;28;20050;-34
2023/09/20 02:55:35;;;;;;;5.65;1.17;;;16.90;99.90;;;;;;4988691;28;20054;-34
2023/09/20 02:58:01;;;;;;;9.68;1.73;;;16.90;99.90;;;;;;4982800;28;20073;-34
2023/09/20 03:00:31;;;;;;;8.18;1.88;;;16.80;99.90;;;;;;4980989;28;20066;-34
2023/09/20 03:03:00;;;;;;;6.55;1.35;;;16.80;99.90;;;;;;4985383;28;20518;-34
2023/09/20 03:05:31;;;;;;;5.65;1.48;;;16.70;99.90;;;;;;4982487;28;20571;-34
2023/09/20 03:07:57;;;;;;;7.35;1.33;;;16.70;99.90;;;;;;4982769;28;20065;-34
2023/09/20 03:10:23;;;;;;;4.95;1.38;;;16.70;99.90;;;;;;4983484;28;20046;-34
2023/09/20 03:12:51;;;;;;;5.47;1.70;;;16.60;99.90;;;;;;4989247;28;20483;-34
2023/09/20 03:15:22;;;;;;;6.88;1.50;;;16.60;99.90;;;;;;4983649;28;20060;-33
2023/09/20 03:17:57;;;;;;;4.78;1.45;;;16.50;99.90;;;;;;4985244;28;20157;-34
2023/09/20 03:20:25;;;;;;;5.63;1.40;;;16.50;99.90;;;;;;4987113;28;20106;-35
2023/09/20 03:22:57;;;;;;;3.97;1.50;;;16.40;99.90;;;;;;4985711;28;20109;-35
2023/09/20 03:25:29;;;;;;;3.92;1.25;;;16.40;99.90;;;;;;4987905;28;20056;-34
2023/09/20 03:27:56;;;;;;;9.00;1.42;;;16.40;99.90;;;;;;4985053;28;20543;-34
2023/09/20 03:30:21;;;;;;;5.75;1.52;;;16.30;99.90;;;;;;4987570;28;20054;-34
2023/09/20 03:32:49;;;;;;;7.05;1.67;;;16.30;99.90;;;;;;4985580;28;20074;-34
2023/09/20 03:35:16;;;;;;;6.57;2.00;;;16.30;99.90;;;;;;4987467;28;20594;-34
2023/09/20 03:37:43;;;;;;;5.30;1.63;;;16.20;99.90;;;;;;4986607;28;20084;-34
2023/09/20 03:40:17;;;;;;;6.97;1.40;;;16.20;99.90;;;;;;4986378;28;20055;-34
2023/09/20 03:42:48;;;;;;;5.68;1.52;;;16.20;99.90;;;;;;4988381;28;20526;-34
2023/09/20 03:45:15;;;;;;;4.65;1.50;;;16.20;99.90;;;;;;4991689;28;20061;-34
2023/09/20 03:47:41;;;;;;;7.18;1.60;;;16.10;99.90;;;;;;4987859;28;20073;-34
2023/09/20 03:50:09;;;;;;;8.77;1.70;;;16.10;99.90;;;;;;4988917;28;20050;-35
2023/09/20 03:52:36;;;;;;;5.40;1.42;;;16.10;99.90;;;;;;4986079;28;20504;-35
2023/09/20 03:55:02;;;;;;;7.57;1.40;;;16.10;99.90;;;;;;4988809;28;20072;-35
2023/09/20 03:57:27;;;;;;;7.18;2.03;;;16.10;99.90;;;;;;4985895;28;20054;-34
2023/09/20 03:59:54;;;;;;;7.10;1.80;;;16.10;99.90;;;;;;4985600;28;20081;-34
2023/09/20 04:02:23;;;;;;;7.60;1.75;;;16.10;99.90;;;;;;4986123;28;20051;-34
2023/09/20 04:04:50;;;;;;;7.32;2.15;;;16.00;99.90;;;;;;4988812;28;20054;-34
2023/09/20 04:07:16;;;;;;;6.28;1.65;;;16.00;99.90;;;;;;4985002;28;20055;-34
2023/09/20 04:09:42;;;;;;;6.70;1.77;;;16.00;99.90;;;;;;4987213;28;20097;-34
2023/09/20 04:12:09;;;;;;;6.38;1.70;;;16.00;99.90;;;;;;4984410;28;20050;-35
2023/09/20 04:14:35;;;;;;;3.85;1.42;;;16.00;99.90;;;;;;4986522;28;20749;-35
2023/09/20 04:17:01;;;;;;;6.13;1.65;;;16.00;99.90;;;;;;4988248;28;20100;-34
2023/09/20 04:19:27;;;;;;;5.97;1.60;;;16.00;99.90;;;;;;4987720;28;20039;-34
2023/09/20 04:21:53;;;;;;;4.95;1.48;;;16.00;99.90;;;;;;4984693;28;20057;-35
2023/09/20 04:24:19;;;;;;;3.40;1.10;;;16.00;99.90;;;;;;4985790;28;20055;-33
2023/09/20 04:26:44;;;;;;;4.38;1.33;;;16.00;99.90;;;;;;4985107;28;20050;-35
2023/09/20 04:29:10;;;;;;;4.95;1.42;;;16.00;99.90;;;;;;4987954;28;20133;-35
2023/09/20 04:31:36;;;;;;;6.18;1.50;;;16.00;99.90;;;;;;4985810;28;20112;-34
2023/09/20 04:34:02;;;;;;;4.70;1.77;;;16.00;99.90;;;;;;4985169;28;20062;-35
2023/09/20 04:36:28;;;;;;;6.50;2.03;;;16.00;99.90;;;;;;4986620;28;20120;-34
2023/09/20 04:38:55;;;;;;;7.00;1.65;;;15.90;99.90;;;;;;4986874;28;20508;-35
2023/09/20 04:41:21;;;;;;;3.53;1.17;;;16.00;99.90;;;;;;4983962;28;20046;-34
2023/09/20 04:43:47;;;;;;;4.22;1.48;;;15.90;99.90;;;;;;4988230;28;20483;-34
2023/09/20 04:46:13;;;;;;;8.18;1.60;;;15.90;99.90;;;;;;4989839;28;20054;-34
2023/09/20 04:48:41;;;;;;;5.05;1.35;;;16.00;99.90;;;;;;4988181;28;20061;-34
2023/09/20 04:51:09;;;;;;;4.07;1.13;;;15.90;99.90;;;;;;4988211;28;20050;-35
2023/09/20 04:53:35;;;;;;;7.07;1.52;;;15.90;99.90;;;;;;4985937;28;20047;-34
2023/09/20 04:56:02;;;;;;;4.82;1.35;;;15.90;99.90;;;;;;4989060;28;20057;-35
2023/09/20 04:58:28;;;;;;;4.68;1.45;;;15.90;99.90;;;;;;4989046;28;20551;-35
2023/09/20 05:00:54;;;;;;;4.20;1.33;;;15.90;99.90;;;;;;4988718;28;20146;-34
2023/09/20 05:03:20;;;;;;;5.63;1.20;;;15.90;99.90;;;;;;4987721;28;20488;-34
2023/09/20 05:05:50;;;;;;;5.85;1.30;;;16.00;99.90;;;;;;4986649;28;20117;-36
2023/09/20 05:08:16;;;;;;;8.43;1.45;;;16.00;99.90;;;;;;4988726;28;20510;-35
2023/09/20 05:10:43;;;;;;;4.50;1.52;;;16.00;99.90;;;;;;4989059;28;20050;-35
2023/09/20 05:13:09;;;;;;;7.22;1.42;;;16.00;99.90;;;;;;4986164;28;20057;-34
2023/09/20 05:15:38;;;;;;;5.28;1.30;;;16.00;99.90;;;;;;4983211;28;20516;-34
2023/09/20 05:18:05;;;;;;;3.45;1.10;;;16.10;99.90;;;;;;4983196;28;20133;-34
2023/09/20 05:20:32;;;;;;;6.03;1.30;;;16.10;99.90;;;;;;4971837;28;20054;-34
2023/09/20 05:22:59;;;;;;;2.58;0.95;;;16.10;99.90;;;;;;4982731;28;20042;-32
2023/09/20 05:25:25;;;;;;;5.93;1.20;;;16.10;99.90;;;;;;4984076;28;20058;-32
2023/09/20 05:27:51;;;;;;;3.38;1.08;;;16.10;99.90;;;;;;4983865;28;20107;-32
2023/09/20 05:30:18;;;;;;;2.97;1.05;;;16.10;99.90;;;;;;4983905;28;20050;-33
2023/09/20 05:32:46;;;;;;;6.50;1.90;;;16.10;99.90;;;;;;4981187;28;20504;-33
2023/09/20 05:35:13;;;;;;;4.70;1.10;;;16.10;99.90;;;;;;4986792;28;20062;-33
2023/09/20 05:37:39;;;;;;;4.82;1.30;;;16.10;99.90;;;;;;4982653;28;20053;-32
2023/09/20 05:40:17;;;;;;;3.78;1.00;;;16.10;99.90;;;;;;4985092;28;20061;-33
2023/09/20 05:42:50;;;;;;;2.65;1.13;;;16.10;99.90;;;;;;4978619;28;20082;-33
2023/09/20 05:45:16;;;;;;;9.23;2.40;;;16.10;99.90;;;;;;4985990;28;20397;-33
2023/09/20 05:47:43;;;;;;;2.85;0.85;;;16.10;99.90;;;;;;4981490;28;20077;-32
2023/09/20 05:50:13;;;;;;;6.68;1.30;;;16.00;99.90;;;;;;4983680;28;20050;-33
2023/09/20 05:52:43;;;;;;;6.63;1.50;;;16.00;99.90;;;;;;4978340;28;20109;-32
2023/09/20 05:55:13;;;;;;;2.75;1.25;;;16.00;99.90;;;;;;4983253;28;20184;-33
2023/09/20 05:57:43;;;;;;;4.30;1.33;;;16.10;99.90;;;;;;4982247;28;20069;-33
2023/09/20 06:00:22;;;;;;;6.50;1.30;;;16.10;99.90;;;;;;4979479;28;20558;-33
2023/09/20 06:02:49;;;;;;;6.45;1.17;;;16.10;99.90;;;;;;4979682;28;20555;-33
2023/09/20 06:05:24;;;;;;;7.05;1.42;;;16.00;99.90;;;;;;4972393;28;20053;-33
2023/09/20 06:07:51;;;;;;;4.82;0.98;;;16.00;99.90;;;;;;4987647;28;20081;-33
2023/09/20 06:10:18;;;;;;;5.63;1.33;;;16.10;99.90;;;;;;4985935;28;20042;-34
2023/09/20 06:12:45;;;;;;;5.25;1.30;;;16.10;99.90;;;;;;4985201;28;20057;-33
2023/09/20 06:15:13;;;;;;;4.45;1.20;;;16.10;99.90;;;;;;4989060;28;20046;-34
2023/09/20 06:17:39;;;;;;;5.68;1.80;;;16.10;99.90;;;;;;4984041;28;20061;-33
2023/09/20 06:20:19;;;;;;;5.05;1.58;;;16.10;99.90;;;;;;4991506;28;20050;-33
2023/09/20 06:22:48;;;;;;;4.85;1.20;;;16.20;99.90;;;;;;4985404;28;20050;-33
2023/09/20 06:25:15;;;;;;;5.88;1.23;;;16.20;99.90;;;;;;4986953;28;20074;-34
2023/09/20 06:27:41;;;;;;;7.28;1.15;;;16.30;99.90;;;;;;4987832;28;20065;-34
2023/09/20 06:30:12;;;;;;;7.50;1.30;;;16.30;99.90;;;;;;4986980;28;20137;-33
2023/09/20 06:32:38;;;;;;;4.18;1.63;;;16.30;99.90;;;;;;4989579;28;20562;-33
2023/09/20 06:35:05;;;;;;;5.07;1.40;;;16.40;99.90;;;;;;4987141;28;20062;-33
2023/09/20 06:37:31;;;;;;;4.70;1.42;;;16.40;99.90;;;;;;4984905;28;20071;-33
2023/09/20 06:39:56;;;;;;;3.13;1.08;;;16.40;99.90;;;;;;4985807;28;20073;-34
2023/09/20 06:42:25;;;;;;;8.02;2.60;;;16.50;99.90;;;;;;4987438;28;20085;-33
2023/09/20 06:44:52;;;;;;;5.32;1.05;;;16.50;99.90;;;;;;4979411;28;20053;-34
2023/09/20 06:47:18;;;;;;;7.63;1.25;;;16.50;99.90;;;;;;4986358;28;20552;-34
2023/09/20 06:49:44;;;;;;;4.88;1.70;;;16.50;99.90;;;;;;4992194;28;20054;-33
2023/09/20 06:52:11;;;;;;;5.65;1.13;;;16.50;99.90;;;;;;4991834;28;20419;-35
2023/09/20 06:54:38;;;;;;;5.57;1.25;;;16.50;99.90;;;;;;4986887;28;20060;-34
2023/09/20 06:57:05;;;;;;;3.75;1.17;;;16.50;99.90;;;;;;4986486;28;20103;-33
2023/09/20 06:59:32;;;;;;;5.72;1.25;;;16.50;99.90;;;;;;4990732;28;20125;-34
2023/09/20 07:01:59;;;;;;;3.17;1.25;;;16.60;99.90;;;;;;4978328;28;20197;-34
2023/09/20 07:04:25;;;;;;;4.72;1.30;;;16.60;99.90;;;;;;4983811;28;20061;-34
2023/09/20 07:06:55;;;;;;;3.92;1.42;;;16.70;99.90;;;;;;4991087;28;20050;-34
2023/09/20 07:09:22;;;;;;;2.08;0.90;;;16.70;99.90;;;;;;4988130;28;20053;-35
2023/09/20 07:11:51;;;;;;;3.90;1.40;;;16.70;99.90;;;;;;4990359;28;20545;-34
2023/09/20 07:14:20;;;;;;;5.40;1.58;;;16.90;99.90;;;;;;4986929;28;20510;-34
2023/09/20 07:16:52;;;;;;;4.68;1.20;;;17.00;99.90;;;;;;4988175;28;20150;-34
2023/09/20 07:19:23;;;;;;;7.38;1.38;;;17.10;99.90;;;;;;4989629;28;20266;-34
2023/09/20 07:21:50;;;;;;;3.58;1.38;;;17.20;99.90;;;;;;4992452;28;20045;-34
2023/09/20 07:24:15;;;;;;;4.03;1.42;;;17.30;99.90;;;;;;4988150;28;20764;-34
2023/09/20 07:26:45;;;;;;;4.47;1.23;;;17.40;99.90;;;;;;4989007;28;20050;-34
2023/09/20 07:29:14;;;;;;;4.78;1.10;;;17.50;99.90;;;;;;4991317;28;20416;-34
2023/09/20 07:31:40;;;;;;;5.80;1.67;;;17.60;99.90;;;;;;4989715;28;20069;-34
2023/09/20 07:34:12;;;;;;;4.80;1.20;;;17.60;99.90;;;;;;4972551;28;20062;-34
2023/09/20 07:36:43;;;;;;;6.95;2.20;;;17.60;99.90;;;;;;4984828;28;20058;-35
2023/09/20 07:39:13;;;;;;;6.88;1.65;;;17.60;99.90;;;;;;4983785;28;20063;-34
2023/09/20 07:41:50;;;;;;;5.35;1.50;;;17.60;99.90;;;;;;4988993;28;20057;-34
2023/09/20 07:44:23;;;;;;;4.47;1.45;;;17.60;99.90;;;;;;4988950;28;20077;-34
2023/09/20 07:46:57;;;;;;;6.95;1.95;;;17.60;99.90;;;;;;4988450;28;20408;-35
2023/09/20 07:49:23;;;;;;;5.75;1.70;;;17.60;99.90;;;;;;5004083;28;20054;-34
2023/09/20 07:51:50;;;;;;;7.75;1.80;;;17.70;99.90;;;;;;4975578;28;20518;-34
2023/09/20 07:54:17;;;;;;;5.28;1.27;;;17.60;99.90;;;;;;4988285;28;20474;-34
2023/09/20 07:56:44;;;;;;;3.88;1.45;;;17.60;99.90;;;;;;4989070;28;20039;-34
2023/09/20 07:59:17;;;;;;;3.55;1.58;;;17.60;99.90;;;;;;4986864;28;20407;-34
2023/09/20 08:01:44;;;;;;;4.60;1.52;;;17.60;99.90;;;;;;4985305;28;20079;-34
2023/09/20 08:04:10;;;;;;;5.80;1.58;;;17.60;99.90;;;;;;4988164;28;20051;-34
2023/09/20 08:06:37;;;;;;;7.00;2.17;;;17.60;99.90;;;;;;4991603;28;20069;-34
2023/09/20 08:09:04;;;;;;;6.20;1.70;;;17.60;99.90;;;;;;4999257;28;20058;-39
2023/09/20 08:11:31;;;;;;;3.15;1.30;;;17.50;99.90;;;;;;4985900;28;20050;-34
2023/09/20 08:13:59;;;;;;;6.55;1.58;;;17.50;99.90;;;;;;4990068;28;20136;-34
2023/09/20 08:16:32;;;;;;;3.42;1.40;;;17.50;99.90;;;;;;4970096;28;20065;-35
2023/09/20 08:21:43;;;;;;;5.07;1.50;;;17.50;99.90;;;;;;4983439;28;20137;-35
2023/09/20 09:00:25;;;;;;;4.15;1.58;;;17.80;99.90;;;;;;4985975;28;20042;-35
2023/09/20 09:02:52;;;;;;;;;;;17.70;99.90;;;;;;4989491;28;20491;-34
2023/09/20 09:05:20;;;;;;;5.25;1.77;;;17.80;99.90;;;;;;4987485;28;19949;-34
2023/09/20 09:07:46;;;;;;;3.47;1.27;;;17.80;99.90;;;;;;4989804;28;20547;-35
2023/09/20 09:10:13;;;;;;;3.70;1.00;;;17.80;99.90;;;;;;4990631;28;20065;-34
2023/09/20 09:12:41;;;;;;;3.67;1.33;;;17.90;99.90;;;;;;4971398;28;20112;-34
2023/09/20 09:15:08;;;;;;;3.55;1.30;;;18.00;99.90;;;;;;4986354;28;20108;-35
2023/09/20 09:17:47;;;;;;;3.70;1.30;;;18.00;99.90;;;;;;4987184;28;20632;-35
2023/09/20 09:20:19;;;;;;;3.08;1.25;;;18.10;99.90;;;;;;4989142;28;20064;-34
2023/09/20 09:22:45;;;;;;;4.63;1.48;;;18.20;99.90;;;;;;4987686;28;20112;-35
2023/09/20 09:25:12;;;;;;;3.53;1.27;;;18.30;99.90;;;;;;4988390;28;20145;-34
2023/09/20 09:27:39;;;;;;;2.92;0.98;;;18.40;99.90;;;;;;5000391;28;20062;-35
2023/09/20 09:30:16;;;;;;;3.10;1.30;;;18.40;99.90;;;;;;4988038;28;20065;-34
2023/09/20 09:32:45;;;;;;;6.28;1.25;;;18.50;99.90;;;;;;4993442;28;20051;-34
2023/09/20 09:35:12;;;;;;;3.08;1.05;;;18.50;99.90;;;;;;4968251;28;20058;-34
2023/09/20 09:37:41;;;;;;;7.00;1.30;;;18.40;99.90;;;;;;4987534;28;20523;-34
2023/09/20 09:40:09;;;;;;;4.35;1.25;;;18.40;99.90;;;;;;4989831;28;20535;-35
2023/09/20 09:42:36;;;;;;;4.60;1.17;;;18.40;99.90;;;;;;4988435;28;20042;-35
2023/09/20 09:45:02;;;;;;;3.50;1.05;;;18.40;99.90;;;;;;4988772;28;20459;-34
2023/09/20 09:47:30;;;;;;;3.17;1.25;;;18.40;99.90;;;;;;4987151;28;20062;-35
2023/09/20 09:49:56;;;;;;;3.38;1.20;;;18.50;99.90;;;;;;4987382;28;20054;-35
2023/09/20 09:52:23;;;;;;;3.47;1.23;;;18.50;99.90;;;;;;4988012;28;20054;-34
2023/09/20 09:54:50;;;;;;;4.43;1.40;;;18.50;99.90;;;;;;4987025;28;20050;-35
2023/09/20 09:57:18;;;;;;;5.30;1.52;;;18.60;99.90;;;;;;4983527;28;20054;-34
2023/09/20 09:59:48;;;;;;;3.10;1.10;;;18.60;99.90;;;;;;4979715;28;20515;-33
2023/09/20 10:02:18;;;;;;;4.32;1.10;;;18.60;99.90;;;;;;4989557;28;20049;-34
2023/09/20 10:05:08;;;;;;;3.67;1.13;;;18.60;99.90;;;;;;4984751;28;20488;-35
2023/09/20 10:07:38;;;;;;;4.70;0.93;;;18.60;99.90;;;;;;4991183;28;20065;-34
2023/09/20 10:10:12;;;;;;;4.25;1.35;;;18.60;99.90;;;;;;4972120;28;20477;-35
2023/09/20 10:12:39;;;;;;;2.50;1.23;;;18.60;99.90;;;;;;4985749;28;20504;-35
2023/09/20 10:15:07;;;;;;;7.93;1.10;;;18.60;99.90;;;;;;4988910;28;20050;-35
2023/09/20 10:17:54;;;;;;;3.22;0.82;;;18.60;99.90;;;;;;4987837;28;20061;-34
2023/09/20 10:20:22;;;;;;;2.40;0.80;;;18.50;99.90;;;;;;4989189;28;20054;-35
2023/09/20 10:22:49;;;;;;;5.25;0.82;;;18.60;99.90;;;;;;4989319;28;20512;-35
2023/09/20 10:25:34;;;;;;;2.83;0.77;;;18.60;99.90;;;;;;4992928;28;20483;-35
2023/09/20 10:28:04;;;;;;;2.10;0.90;;;18.60;99.90;;;;;;4985193;28;20046;-34
2023/09/20 10:30:34;;;;;;;2.00;0.88;;;18.60;99.90;;;;;;4990349;28;20054;-35
2023/09/20 10:33:03;;;;;;;2.13;0.90;;;18.60;99.90;;;;;;4984536;28;20054;-34
2023/09/20 10:35:30;;;;;;;2.47;0.85;;;18.60;99.90;;;;;;4988212;28;20495;-35
2023/09/20 10:38:07;;;;;;;3.75;1.10;;;18.60;99.90;;;;;;4986167;28;20058;-34
2023/09/20 10:40:48;;;;;;;4.35;1.02;;;18.60;99.90;;;;;;4986518;28;20046;-34
2023/09/20 10:43:15;;;;;;;3.72;1.20;;;18.60;99.90;;;;;;4983216;28;20566;-34
2023/09/20 10:45:41;;;;;;;1.98;0.70;;;18.50;99.90;;;;;;4988089;28;20567;-35
2023/09/20 10:48:12;;;;;;;2.10;0.90;;;18.50;99.90;;;;;;4985864;28;20188;-34
2023/09/20 10:50:57;;;;;;;2.72;0.80;;;18.50;99.90;;;;;;4986273;28;20057;-34
2023/09/20 10:53:50;;;;;;;2.95;1.05;;;18.40;99.90;;;;;;4986694;28;20054;-34
2023/09/20 10:56:45;;;;;;;4.47;1.20;;;18.50;99.90;;;;;;4986746;28;20445;-35
2023/09/20 10:59:16;;;;;;;4.25;1.10;;;18.50;99.90;;;;;;4980984;28;20093;-35
2023/09/20 11:01:52;;;;;;;3.70;1.15;;;18.50;99.90;;;;;;4989253;28;20050;-34
2023/09/20 11:04:18;;;;;;;2.70;1.38;;;18.60;99.90;;;;;;4990481;28;20487;-35
2023/09/20 11:06:52;;;;;;;1.95;0.80;;;18.60;99.90;;;;;;4991183;28;20544;-34
2023/09/20 11:09:20;;;;;;;4.28;1.23;;;18.60;99.90;;;;;;4989382;28;20050;-35
2023/09/20 11:11:47;;;;;;;4.45;1.23;;;18.80;99.90;;;;;;5004814;28;20054;-34
2023/09/20 11:14:13;;;;;;;5.72;1.38;;;18.80;99.90;;;;;;4988065;28;20069;-36
2023/09/20 11:16:43;;;;;;;4.18;1.00;;;19.00;99.90;;;;;;4991670;28;20042;-35
2023/09/20 11:19:10;;;;;;;4.53;1.30;;;19.00;99.90;;;;;;4972980;28;20136;-35
2023/09/20 11:21:37;;;;;;;3.90;1.27;;;19.10;99.90;;;;;;5003433;28;20057;-34
2023/09/20 11:24:03;;;;;;;2.88;1.23;;;19.10;99.90;;;;;;4985679;28;20043;-34
2023/09/20 11:26:29;;;;;;;2.90;1.10;;;19.20;99.90;;;;;;4986171;28;20053;-35
2023/09/20 11:28:56;;;;;;;4.10;0.95;;;19.20;99.90;;;;;;4987005;28;20547;-35
2023/09/20 11:31:30;;;;;;;2.20;0.98;;;19.30;99.90;;;;;;4984371;28;20057;-34
2023/09/20 11:34:00;;;;;;;3.25;1.15;;;19.30;99.90;;;;;;4988165;28;20088;-35
2023/09/20 11:36:29;;;;;;;3.30;1.33;;;19.30;99.90;;;;;;4989917;28;20046;-35
2023/09/20 11:38:55;;;;;;;4.50;1.02;;;19.40;99.90;;;;;;4992505;28;20132;-35
2023/09/20 11:41:24;;;;;;;7.38;1.20;;;19.40;99.90;;;;;;5001470;28;20101;-34
2023/09/20 11:43:56;;;;;;;3.25;0.95;;;19.40;99.90;;;;;;4988784;28;20049;-35
2023/09/20 11:46:26;;;;;;;2.88;1.15;;;19.50;99.90;;;;;;4987213;28;20046;-35
2023/09/20 11:48:51;;;;;;;3.30;1.33;;;19.60;99.90;;;;;;4987809;28;20512;-35
2023/09/20 11:51:17;;;;;;;3.05;1.63;;;19.60;99.90;;;;;;4986226;28;20053;-35
2023/09/20 11:53:44;;;;;;;3.45;1.08;;;19.60;99.90;;;;;;4985835;28;20077;-35
2023/09/20 11:56:10;;;;;;;6.57;1.35;;;19.70;99.90;;;;;;5003596;28;20117;-35
2023/09/20 11:58:37;;;;;;;4.88;1.25;;;19.70;99.90;;;;;;4986774;28;20756;-35
2023/09/20 12:01:11;;;;;;;3.55;1.20;;;19.70;99.90;;;;;;4989177;28;20383;-35
2023/09/20 12:03:37;;;;;;;6.68;1.60;;;19.70;99.90;;;;;;4990584;28;20065;-35
2023/09/20 12:06:03;;;;;;;2.80;1.20;;;19.80;99.90;;;;;;4986294;28;20046;-35
2023/09/20 12:08:32;;;;;;;4.53;1.45;;;19.80;99.90;;;;;;4989838;28;20050;-34
2023/09/20 12:10:58;;;;;;;5.65;1.60;;;19.90;99.90;;;;;;4990928;28;20445;-34
2023/09/20 12:13:24;;;;;;;2.92;1.33;;;20.00;99.90;;;;;;4988966;28;20050;-34
2023/09/20 12:15:51;;;;;;;4.32;1.60;;;20.00;99.90;;;;;;4983020;28;20384;-34
2023/09/20 12:18:16;;;;;;;3.38;1.33;;;20.00;99.90;;;;;;4989106;28;20112;-34
2023/09/20 12:20:42;;;;;;;4.63;1.67;;;20.10;99.90;;;;;;4989668;28;20058;-35
2023/09/20 12:23:09;;;;;;;3.63;1.17;;;20.20;99.90;;;;;;4986376;28;20076;-34
2023/09/20 12:25:35;;;;;;;7.13;1.45;;;20.30;99.90;;;;;;4982493;28;20203;-35
2023/09/20 12:28:01;;;;;;;4.47;1.50;;;20.30;99.90;;;;;;4988213;28;20100;-34
2023/09/20 12:30:27;;;;;;;4.03;1.58;;;20.30;99.90;;;;;;4984837;28;20057;-34
2023/09/20 12:32:56;;;;;;;4.10;1.60;;;20.30;99.90;;;;;;4986781;28;20514;-34
2023/09/20 12:35:21;;;;;;;4.82;2.03;;;20.30;99.90;;;;;;4983545;28;20115;-35
2023/09/20 12:37:47;;;;;;;6.45;1.52;;;20.30;99.90;;;;;;4988402;28;20058;-35
2023/09/20 12:40:13;;;;;;;5.05;1.55;;;20.40;99.90;;;;;;4983819;28;20496;-35
2023/09/20 12:42:39;;;;;;;5.47;1.10;;;20.50;99.90;;;;;;4986396;28;20061;-35
2023/09/20 12:45:07;;;;;;;5.43;1.58;;;20.70;99.90;;;;;;4982851;28;20050;-34
2023/09/20 12:47:34;;;;;;;3.40;1.40;;;20.80;99.90;;;;;;4985458;28;20054;-34
2023/09/20 12:50:03;;;;;;;3.80;1.45;;;21.00;99.90;;;;;;4985586;28;20508;-34
2023/09/20 12:52:29;;;;;;;4.47;1.50;;;21.10;99.90;;;;;;4988036;28;20050;-34
2023/09/20 12:54:55;;;;;;;3.00;1.30;;;21.20;99.90;;;;;;4989136;28;20420;-35
2023/09/20 12:57:24;;;;;;;6.10;1.27;;;21.50;99.90;;;;;;4984399;28;21451;-34
2023/09/20 12:59:49;;;;;;;2.67;1.08;;;21.90;99.90;;;;;;4986419;28;20094;-35
2023/09/20 13:02:15;;;;;;;7.45;1.20;;;22.20;99.90;;;;;;4971496;28;20064;-35
2023/09/20 13:04:41;;;;;;;3.50;1.55;;;22.50;99.90;;;;;;4984312;28;20139;-35
2023/09/20 13:07:08;;;;;;;5.25;1.25;;;22.90;99.90;;;;;;4986766;28;20057;-35
2023/09/20 13:09:34;;;;;;;2.97;1.20;;;23.20;99.90;;;;;;4986098;28;20564;-35
2023/09/20 13:12:01;;;;;;;3.30;1.05;;;23.00;99.90;;;;;;4987891;28;20496;-35
2023/09/20 13:14:30;;;;;;;2.13;0.80;;;23.00;99.90;;;;;;4985267;28;20168;-34
2023/09/20 13:16:56;;;;;;;3.33;1.10;;;22.70;99.90;;;;;;4989386;28;20499;-35
2023/09/20 13:19:22;;;;;;;3.15;1.33;;;22.50;99.90;;;;;;4979028;28;20348;-35
2023/09/20 13:21:47;;;;;;;4.53;1.27;;;22.40;99.90;;;;;;4967729;28;20054;-35
2023/09/20 13:24:13;;;;;;;7.35;1.40;;;22.10;99.90;;;;;;4984813;28;20046;-35
2023/09/20 13:26:39;;;;;;;3.70;1.02;;;22.10;99.90;;;;;;4988952;28;20058;-35
2023/09/20 13:29:05;;;;;;;4.03;1.55;;;22.10;99.90;;;;;;5002378;28;20050;-35
2023/09/20 13:31:31;;;;;;;2.67;1.10;;;22.10;99.90;;;;;;4988226;28;20042;-35